createdAt,value
2022-11-10T00:00:00.000Z,5.62
2022-11-10T00:15:00.000Z,5.59
2022-11-10T00:30:00.000Z,5.25
2022-11-10T00:45:00.000Z,5.31
2022-11-10T01:00:00.000Z,5.89
2022-11-10T01:15:00.000Z,5.46
2022-11-10T01:30:00.000Z,5.59
2022-11-10T01:45:00.000Z,5.71
2022-11-10T02:00:00.000Z,5.87
2022-11-10T02:15:00.000Z,5.46
2022-11-10T02:30:00.000Z,5.22
2022-11-10T02:45:00.000Z,5.22
2022-11-10T03:00:00.000Z,5.22
2022-11-10T03:15:00.000Z,7.95
2022-11-10T03:30:00.000Z,6.99
2022-11-10T03:45:00.000Z,5.11
2022-11-10T04:00:00.000Z,5.16
2022-11-10T04:15:00.000Z,5.28
2022-11-10T04:30:00.000Z,5.46
2022-11-10T04:45:00.000Z,5.47
2022-11-10T05:00:00.000Z,5.27
2022-11-10T05:15:00.000Z,5.31
2022-11-10T05:30:00.000Z,6.16
2022-11-10T05:45:00.000Z,7.18
2022-11-10T06:00:00.000Z,5.51
2022-11-10T06:15:00.000Z,4.41
2022-11-10T06:30:00.000Z,5.6
2022-11-10T06:45:00.000Z,5.76
2022-11-10T07:00:00.000Z,9.29
2022-11-10T07:15:00.000Z,7.52
2022-11-10T07:30:00.000Z,9.71
2022-11-10T07:45:00.000Z,6.11
2022-11-10T08:00:00.000Z,7.03
2022-11-10T08:15:00.000Z,6.23
2022-11-10T08:30:00.000Z,5.13
2022-11-10T08:45:00.000Z,4.93
2022-11-10T09:00:00.000Z,4.52
2022-11-10T09:15:00.000Z,4.71
2022-11-10T09:30:00.000Z,6.58
2022-11-10T09:45:00.000Z,8.2
2022-11-10T10:15:00.000Z,5.65
2022-11-10T10:30:00.000Z,5.24
2022-11-10T10:45:00.000Z,5.88
2022-11-10T11:00:00.000Z,5.89
2022-11-10T11:15:00.000Z,5.13
2022-11-10T11:30:00.000Z,3.98
2022-11-10T11:45:00.000Z,4.74
2022-11-10T12:00:00.000Z,4.98
2022-11-10T12:15:00.000Z,5.06
2022-11-10T12:30:00.000Z,4.92
2022-11-10T12:45:00.000Z,6.06
2022-11-10T13:00:00.000Z,4.64
2022-11-10T13:15:00.000Z,4.99
2022-11-10T13:30:00.000Z,4.79
2022-11-10T13:45:00.000Z,3.95
2022-11-10T14:00:00.000Z,3.99
2022-11-10T14:15:00.000Z,6.04
2022-11-10T14:30:00.000Z,4.16
2022-11-10T14:45:00.000Z,3.84
2022-11-10T15:00:00.000Z,4.75
2022-11-10T15:15:00.000Z,5.29
2022-11-10T15:30:00.000Z,6.25
2022-11-10T15:45:00.000Z,5.12
2022-11-10T16:00:00.000Z,5.82
2022-11-10T16:15:00.000Z,7.27
2022-11-10T16:30:00.000Z,7.39
2022-11-10T16:45:00.000Z,7.2
2022-11-10T17:00:00.000Z,7.49
2022-11-10T17:15:00.000Z,8.92
2022-11-10T17:30:00.000Z,9.39
2022-11-10T17:45:00.000Z,8.96
2022-11-10T18:00:00.000Z,11.56
2022-11-10T18:15:00.000Z,10.81
2022-11-10T18:30:00.000Z,11.52
2022-11-10T18:45:00.000Z,8.42
2022-11-10T19:00:00.000Z,9.58
2022-11-10T19:15:00.000Z,11.18
2022-11-10T19:30:00.000Z,10.34
2022-11-10T19:45:00.000Z,9.4
2022-11-10T20:00:00.000Z,9.69
2022-11-10T20:15:00.000Z,10.52
2022-11-10T20:30:00.000Z,10.18
2022-11-10T20:45:00.000Z,9.94
2022-11-10T21:00:00.000Z,9.74
2022-11-10T21:15:00.000Z,12.31
2022-11-10T21:30:00.000Z,11.52
2022-11-10T21:45:00.000Z,10.2
2022-11-10T22:00:00.000Z,7.58
2022-11-10T22:15:00.000Z,7.18
2022-11-10T22:30:00.000Z,6.63
2022-11-10T22:45:00.000Z,7.56
2022-11-10T23:00:00.000Z,8.42
2022-11-10T23:15:00.000Z,8.33
2022-11-10T23:30:00.000Z,8
2022-11-10T23:45:00.000Z,8.58
